Time;durP1;ratioP1;P1;durP2;ratioP2;P2;SDS_P1;SDS_P2;PMS_P1;PMS_P2;Temp;Humidity;BMP_temperature;BMP_pressure;BME280_temperature;BME280_humidity;BME280_pressure;Samples;Min_cycle;Max_cycle;Signal;HPM_P1;HPM_P2
2022/04/15 00:01:23;;;;;;;361.13;162.50;;;;;;;;;;5034222;28;20504;-61
2022/04/15 00:03:49;;;;;;;367.55;165.25;;;;;;;;;;5034556;28;20231;-61
2022/04/15 00:06:15;;;;;;;366.60;167.88;;;;;;;;;;5034061;28;20654;-61
2022/04/15 00:08:41;;;;;;;308.83;157.87;;;;;;;;;;5034388;28;20173;-61
2022/04/15 00:11:07;;;;;;;364.70;159.98;;;;;;;;;;5033818;28;20408;-61
2022/04/15 00:13:35;;;;;;;304.97;166.00;;;;;;;;;;5034166;28;20172;-61
2022/04/15 00:16:02;;;;;;;308.85;166.88;;;;;;;;;;5034150;28;20456;-61
2022/04/15 00:18:28;;;;;;;311.45;171.85;;;;;;;;;;5034265;28;20222;-61
2022/04/15 00:20:54;;;;;;;310.90;173.50;;;;;;;;;;5033946;28;20177;-61
2022/04/15 00:23:22;;;;;;;309.52;171.43;;;;;;;;;;5034098;28;20411;-61
2022/04/15 00:25:48;;;;;;;377.90;174.10;;;;;;;;;;5033838;28;20679;-62
2022/04/15 00:28:15;;;;;;;372.25;171.63;;;;;;;;;;5033987;28;20183;-61
2022/04/15 00:30:41;;;;;;;379.57;173.50;;;;;;;;;;5033704;28;20285;-61
2022/04/15 00:33:07;;;;;;;384.42;178.10;;;;;;;;;;5033984;28;20400;-61
2022/04/15 00:35:33;;;;;;;381.15;173.02;;;;;;;;;;5033893;28;20196;-61
2022/04/15 00:37:59;;;;;;;383.97;173.83;;;;;;;;;;5033830;28;20667;-61
2022/04/15 00:40:25;;;;;;;387.30;173.98;;;;;;;;;;5033235;28;21009;-61
2022/04/15 00:42:51;;;;;;;384.03;169.70;;;;;;;;;;5033559;28;20234;-62
2022/04/15 00:45:17;;;;;;;380.38;162.43;;;;;;;;;;5033030;28;20459;-61
2022/04/15 00:48:00;;;;;;;378.85;169.98;;;;;;;;;;5033392;28;20177;-61
2022/04/15 00:50:33;;;;;;;387.75;176.43;;;;;;;;;;5032938;28;20219;-61
2022/04/15 00:53:00;;;;;;;368.55;172.98;;;;;;;;;;5033489;28;20181;-60
2022/04/15 00:55:27;;;;;;;380.80;170.52;;;;;;;;;;5033588;28;20207;-62
2022/04/15 00:58:00;;;;;;;385.85;167.65;;;;;;;;;;5033400;28;20252;-61
2022/04/15 01:00:27;;;;;;;392.33;173.63;;;;;;;;;;5033141;28;20242;-61
2022/04/15 01:02:54;;;;;;;361.30;169.40;;;;;;;;;;5033378;28;20202;-61
2022/04/15 01:05:20;;;;;;;375.88;172.40;;;;;;;;;;5033018;28;20284;-61
2022/04/15 01:07:49;;;;;;;375.10;179.93;;;;;;;;;;5033269;28;20192;-61
2022/04/15 01:10:16;;;;;;;367.63;173.52;;;;;;;;;;5032957;28;20205;-61
2022/04/15 01:12:47;;;;;;;363.33;169.60;;;;;;;;;;5033179;28;20251;-62
2022/04/15 01:15:13;;;;;;;367.98;169.95;;;;;;;;;;5032839;28;20173;-62
2022/04/15 01:17:40;;;;;;;367.75;172.93;;;;;;;;;;5033103;28;20173;-62
2022/04/15 01:20:10;;;;;;;370.65;180.30;;;;;;;;;;5032744;28;20188;-62
2022/04/15 01:22:38;;;;;;;361.77;163.85;;;;;;;;;;5032918;28;20176;-61
2022/04/15 01:25:04;;;;;;;367.83;174.35;;;;;;;;;;5033000;28;20816;-62
2022/04/15 01:27:34;;;;;;;367.45;172.13;;;;;;;;;;5032605;28;20180;-61
2022/04/15 01:30:00;;;;;;;363.58;172.75;;;;;;;;;;5032759;28;20211;-61
2022/04/15 01:32:26;;;;;;;369.67;174.05;;;;;;;;;;5032682;28;20272;-61
2022/04/15 01:34:52;;;;;;;370.33;169.43;;;;;;;;;;5032675;28;20176;-62
2022/04/15 01:37:20;;;;;;;370.00;175.95;;;;;;;;;;5032771;28;20441;-61
2022/04/15 01:39:47;;;;;;;370.98;173.30;;;;;;;;;;5032572;28;20276;-61
2022/04/15 01:42:16;;;;;;;350.02;167.95;;;;;;;;;;5032438;28;20195;-62
2022/04/15 01:44:43;;;;;;;368.67;173.57;;;;;;;;;;5032495;28;20177;-62
2022/04/15 01:47:10;;;;;;;364.33;168.55;;;;;;;;;;5032414;28;20220;-62
2022/04/15 01:49:36;;;;;;;369.42;172.10;;;;;;;;;;5032338;28;20216;-60
2022/04/15 01:52:03;;;;;;;371.00;174.38;;;;;;;;;;5032417;28;20201;-61
2022/04/15 01:54:29;;;;;;;372.85;174.15;;;;;;;;;;5032317;28;20550;-61
2022/04/15 01:56:55;;;;;;;376.33;175.97;;;;;;;;;;5031124;28;20267;-62
2022/04/15 01:59:21;;;;;;;370.50;170.23;;;;;;;;;;5032303;28;20414;-62
2022/04/15 02:01:47;;;;;;;375.10;174.52;;;;;;;;;;5031963;28;20237;-61
2022/04/15 02:04:13;;;;;;;367.63;158.77;;;;;;;;;;5032216;28;20842;-61
2022/04/15 02:06:39;;;;;;;372.23;174.07;;;;;;;;;;5031928;28;20207;-62
2022/04/15 02:09:05;;;;;;;373.50;176.27;;;;;;;;;;5031287;28;20459;-61
2022/04/15 02:11:31;;;;;;;374.83;174.10;;;;;;;;;;5031836;28;20465;-62
2022/04/15 02:13:57;;;;;;;368.13;166.70;;;;;;;;;;5031861;28;20443;-61
2022/04/15 02:16:23;;;;;;;368.97;167.60;;;;;;;;;;5031461;28;20423;-61
2022/04/15 02:18:49;;;;;;;373.23;163.80;;;;;;;;;;5031695;28;20408;-62
2022/04/15 02:21:15;;;;;;;378.17;170.40;;;;;;;;;;5031262;28;20787;-61
2022/04/15 02:23:41;;;;;;;378.50;169.00;;;;;;;;;;5031873;28;20412;-61
2022/04/15 02:26:07;;;;;;;376.63;170.00;;;;;;;;;;5031741;28;20437;-62
2022/04/15 02:28:33;;;;;;;372.43;166.90;;;;;;;;;;5031603;28;20447;-61
2022/04/15 02:30:58;;;;;;;386.37;168.53;;;;;;;;;;5031481;28;20415;-61
2022/04/15 02:33:24;;;;;;;383.87;167.77;;;;;;;;;;5031650;28;20417;-62
2022/04/15 02:35:50;;;;;;;385.97;167.87;;;;;;;;;;5031778;28;20510;-62
2022/04/15 02:38:16;;;;;;;349.70;161.35;;;;;;;;;;5031579;28;20469;-61
2022/04/15 02:40:43;;;;;;;387.53;166.80;;;;;;;;;;5031507;28;20655;-61
2022/04/15 02:43:09;;;;;;;391.08;168.15;;;;;;;;;;5031625;28;20411;-62
2022/04/15 02:45:38;;;;;;;385.50;163.25;;;;;;;;;;5032362;28;20307;-64
2022/04/15 02:48:04;;;;;;;384.27;165.60;;;;;;;;;;5031509;28;20176;-62
2022/04/15 02:50:30;;;;;;;387.60;167.90;;;;;;;;;;5031205;28;20702;-62
2022/04/15 02:52:58;;;;;;;366.30;164.30;;;;;;;;;;5031488;28;20177;-62
2022/04/15 02:55:24;;;;;;;372.63;164.60;;;;;;;;;;5031426;28;20690;-61
2022/04/15 02:57:50;;;;;;;366.93;164.00;;;;;;;;;;5031318;28;20255;-61
2022/04/15 03:00:16;;;;;;;367.50;164.33;;;;;;;;;;5031257;28;20515;-61
2022/04/15 03:02:42;;;;;;;367.80;163.88;;;;;;;;;;5031427;28;20439;-61
2022/04/15 03:05:09;;;;;;;370.88;157.68;;;;;;;;;;5031351;28;20182;-61
2022/04/15 03:07:35;;;;;;;371.65;161.27;;;;;;;;;;5031310;28;20246;-61
2022/04/15 03:10:01;;;;;;;372.02;164.30;;;;;;;;;;5035337;28;20197;-62
2022/04/15 03:12:27;;;;;;;385.53;160.83;;;;;;;;;;5035251;28;20176;-62
2022/04/15 03:14:53;;;;;;;388.57;165.13;;;;;;;;;;5035535;28;20862;-61
2022/04/15 03:17:19;;;;;;;388.03;166.47;;;;;;;;;;5035256;28;20954;-62
2022/04/15 03:19:45;;;;;;;381.92;162.65;;;;;;;;;;5035283;28;20438;-62
2022/04/15 03:22:11;;;;;;;380.60;167.40;;;;;;;;;;5034956;28;20220;-61
2022/04/15 03:24:37;;;;;;;383.83;163.23;;;;;;;;;;5035203;28;20616;-61
2022/04/15 03:27:03;;;;;;;376.23;159.83;;;;;;;;;;5035016;28;20457;-62
2022/04/15 03:29:29;;;;;;;379.67;158.93;;;;;;;;;;5034807;28;20472;-61
2022/04/15 03:31:55;;;;;;;310.00;159.10;;;;;;;;;;5034911;28;20243;-61
2022/04/15 03:34:21;;;;;;;316.97;163.60;;;;;;;;;;5035014;28;20396;-62
2022/04/15 03:36:47;;;;;;;372.00;157.87;;;;;;;;;;5034627;28;20510;-62
2022/04/15 03:39:13;;;;;;;377.17;163.55;;;;;;;;;;5034819;28;20480;-62
2022/04/15 03:41:39;;;;;;;367.50;156.70;;;;;;;;;;5034608;28;20260;-61
2022/04/15 03:44:05;;;;;;;366.55;159.07;;;;;;;;;;5034883;28;20490;-61
2022/04/15 03:46:31;;;;;;;372.33;165.57;;;;;;;;;;5034426;28;20291;-61
2022/04/15 03:48:57;;;;;;;368.58;159.68;;;;;;;;;;5034709;28;20246;-61
2022/04/15 03:51:23;;;;;;;377.73;161.83;;;;;;;;;;5034368;28;20671;-61
2022/04/15 03:53:49;;;;;;;307.80;159.23;;;;;;;;;;5034771;28;20414;-61
2022/04/15 03:56:15;;;;;;;363.38;160.27;;;;;;;;;;5034526;28;20438;-62
2022/04/15 03:58:41;;;;;;;380.50;153.87;;;;;;;;;;5034071;28;20176;-61
2022/04/15 04:01:07;;;;;;;373.70;156.20;;;;;;;;;;5033923;28;20414;-61
2022/04/15 04:03:33;;;;;;;305.30;143.87;;;;;;;;;;5034396;28;20443;-61
2022/04/15 04:05:59;;;;;;;310.13;141.83;;;;;;;;;;5034339;28;20423;-61
2022/04/15 04:08:25;;;;;;;319.97;144.80;;;;;;;;;;5034322;28;20494;-61
2022/04/15 04:10:50;;;;;;;338.03;151.97;;;;;;;;;;5033999;28;20470;-61
2022/04/15 04:13:16;;;;;;;281.37;140.20;;;;;;;;;;5034337;28;20403;-62
2022/04/15 04:15:42;;;;;;;292.20;148.23;;;;;;;;;;5034259;28;20427;-62
2022/04/15 04:18:10;;;;;;;350.43;147.63;;;;;;;;;;5034205;28;20407;-61
2022/04/15 04:20:36;;;;;;;357.55;148.38;;;;;;;;;;5032997;28;20457;-61
2022/04/15 04:23:02;;;;;;;358.95;145.23;;;;;;;;;;5033839;28;20648;-61
2022/04/15 04:25:28;;;;;;;366.33;148.80;;;;;;;;;;5033887;28;20193;-61
2022/04/15 04:27:54;;;;;;;366.00;143.83;;;;;;;;;;5034056;28;20733;-61
2022/04/15 04:30:20;;;;;;;376.55;153.20;;;;;;;;;;5034006;28;20463;-61
2022/04/15 04:32:50;;;;;;;376.52;148.80;;;;;;;;;;5033892;28;20180;-61
2022/04/15 04:35:17;;;;;;;375.58;149.55;;;;;;;;;;5033914;28;20264;-61
2022/04/15 04:37:44;;;;;;;342.25;143.13;;;;;;;;;;5033954;28;20169;-61
2022/04/15 04:40:10;;;;;;;336.25;134.20;;;;;;;;;;5033466;28;20177;-61
2022/04/15 04:42:36;;;;;;;345.70;143.52;;;;;;;;;;5033712;28;20185;-61
2022/04/15 04:45:02;;;;;;;349.90;142.15;;;;;;;;;;5033626;28;20181;-62
2022/04/15 04:47:29;;;;;;;369.65;145.13;;;;;;;;;;5033742;28;20271;-61
2022/04/15 04:49:55;;;;;;;369.95;145.95;;;;;;;;;;5033526;28;20687;-61
2022/04/15 04:52:22;;;;;;;369.98;146.07;;;;;;;;;;5033484;28;20199;-62
2022/04/15 04:54:48;;;;;;;361.77;143.02;;;;;;;;;;5033548;28;20179;-61
2022/04/15 04:57:14;;;;;;;326.70;142.77;;;;;;;;;;5033401;28;20315;-61
2022/04/15 04:59:40;;;;;;;283.57;139.47;;;;;;;;;;5033508;28;20192;-61
2022/04/15 05:02:06;;;;;;;342.17;145.85;;;;;;;;;;5033327;28;20416;-61
2022/04/15 05:04:32;;;;;;;348.98;145.73;;;;;;;;;;5033359;28;20555;-61
2022/04/15 05:06:58;;;;;;;366.95;147.10;;;;;;;;;;5032978;28;20200;-62
2022/04/15 05:09:24;;;;;;;367.07;145.03;;;;;;;;;;5033088;28;20211;-61
2022/04/15 05:11:51;;;;;;;365.93;142.50;;;;;;;;;;5033088;28;20408;-61
2022/04/15 05:14:17;;;;;;;358.63;144.38;;;;;;;;;;5033244;28;20435;-61
2022/04/15 05:16:43;;;;;;;369.25;146.25;;;;;;;;;;5033020;28;20199;-61
2022/04/15 05:19:09;;;;;;;372.98;147.68;;;;;;;;;;5032774;28;20632;-61
2022/04/15 05:21:35;;;;;;;368.03;146.03;;;;;;;;;;5032458;28;20260;-61
2022/04/15 05:24:01;;;;;;;377.48;148.75;;;;;;;;;;5032401;28;20775;-61
2022/04/15 05:26:29;;;;;;;366.63;144.90;;;;;;;;;;5032980;28;20200;-61
2022/04/15 05:28:55;;;;;;;373.98;150.90;;;;;;;;;;5032825;28;20540;-61
2022/04/15 05:31:21;;;;;;;381.17;152.87;;;;;;;;;;5032624;28;20179;-62
2022/04/15 05:33:47;;;;;;;373.77;149.10;;;;;;;;;;5032824;28;20392;-61
2022/04/15 05:36:12;;;;;;;366.00;141.63;;;;;;;;;;5032503;28;20485;-62
2022/04/15 05:38:38;;;;;;;373.27;147.20;;;;;;;;;;5032778;28;20423;-61
2022/04/15 05:41:06;;;;;;;358.40;149.23;;;;;;;;;;5032131;28;20419;-62
2022/04/15 05:43:32;;;;;;;364.65;144.57;;;;;;;;;;5032425;28;20407;-62
2022/04/15 05:45:58;;;;;;;368.37;153.57;;;;;;;;;;5032478;28;20287;-62
2022/04/15 05:48:24;;;;;;;372.10;156.73;;;;;;;;;;5032503;28;20446;-61
2022/04/15 05:50:51;;;;;;;354.33;152.00;;;;;;;;;;5032328;28;20502;-61
2022/04/15 05:53:17;;;;;;;374.27;152.77;;;;;;;;;;5032756;28;20411;-61
2022/04/15 05:55:43;;;;;;;380.17;161.90;;;;;;;;;;5032463;28;20276;-61
2022/04/15 05:58:10;;;;;;;393.45;162.88;;;;;;;;;;5032566;28;20636;-61
2022/04/15 06:00:36;;;;;;;391.10;160.63;;;;;;;;;;5032174;28;20188;-62
2022/04/15 06:03:02;;;;;;;388.52;163.55;;;;;;;;;;5032290;28;20200;-61
2022/04/15 06:05:28;;;;;;;395.67;165.47;;;;;;;;;;5032055;28;20568;-61
2022/04/15 06:07:54;;;;;;;397.70;163.20;;;;;;;;;;5031884;28;20427;-62
2022/04/15 06:10:20;;;;;;;412.27;173.48;;;;;;;;;;5031890;28;20200;-62
2022/04/15 06:13:04;;;;;;;375.08;173.70;;;;;;;;;;5018156;28;20261;-61
2022/04/15 06:15:33;;;;;;;357.20;168.10;;;;;;;;;;5012349;28;20726;-61
2022/04/15 06:18:00;;;;;;;354.58;174.50;;;;;;;;;;5012158;28;20173;-61
2022/04/15 06:20:26;;;;;;;358.48;173.02;;;;;;;;;;5012082;28;20175;-62
2022/04/15 06:22:52;;;;;;;359.35;179.18;;;;;;;;;;5012050;28;20173;-61
2022/04/15 06:25:18;;;;;;;356.47;181.10;;;;;;;;;;5012161;28;20286;-62
2022/04/15 06:27:44;;;;;;;355.50;179.95;;;;;;;;;;5012029;28;20904;-62
2022/04/15 06:30:10;;;;;;;341.38;182.70;;;;;;;;;;5011760;28;20198;-61
2022/04/15 06:32:37;;;;;;;359.30;187.13;;;;;;;;;;5011907;28;20180;-62
2022/04/15 06:35:06;;;;;;;352.13;180.43;;;;;;;;;;5011934;28;20225;-62
2022/04/15 06:37:32;;;;;;;356.23;191.80;;;;;;;;;;5011878;28;20546;-62
2022/04/15 06:39:58;;;;;;;334.03;184.63;;;;;;;;;;5011974;28;20187;-62
2022/04/15 06:42:25;;;;;;;340.60;189.53;;;;;;;;;;5011336;28;20995;-62
2022/04/15 06:44:51;;;;;;;357.63;215.25;;;;;;;;;;5011675;28;20877;-62
2022/04/15 06:47:17;;;;;;;354.67;208.98;;;;;;;;;;5029024;28;20218;-62
2022/04/15 06:49:45;;;;;;;365.25;224.85;;;;;;;;;;5031388;28;20218;-62
2022/04/15 06:52:11;;;;;;;359.92;215.57;;;;;;;;;;5031315;28;20552;-64
2022/04/15 06:54:37;;;;;;;368.87;221.47;;;;;;;;;;5031498;28;20268;-62
2022/04/15 06:57:03;;;;;;;345.10;214.97;;;;;;;;;;5031522;28;20459;-62
2022/04/15 06:59:29;;;;;;;342.75;225.73;;;;;;;;;;5028394;28;20916;-62
2022/04/15 07:01:55;;;;;;;354.67;227.33;;;;;;;;;;5012848;28;20264;-61
2022/04/15 07:04:21;;;;;;;294.27;220.73;;;;;;;;;;5031414;28;20499;-62
2022/04/15 07:06:48;;;;;;;283.38;232.40;;;;;;;;;;5031329;28;20239;-61
2022/04/15 07:09:14;;;;;;;280.00;230.88;;;;;;;;;;5031035;28;20229;-62
2022/04/15 07:11:40;;;;;;;286.17;243.23;;;;;;;;;;5031114;28;20605;-62
2022/04/15 07:14:06;;;;;;;287.52;233.85;;;;;;;;;;5030147;28;20195;-62
2022/04/15 07:16:32;;;;;;;280.37;247.37;;;;;;;;;;5031756;28;20299;-62
2022/04/15 07:19:02;;;;;;;293.33;250.30;;;;;;;;;;4997174;28;20415;-62
2022/04/15 07:21:28;;;;;;;279.58;246.45;;;;;;;;;;5030789;28;20164;-62
2022/04/15 07:23:54;;;;;;;287.57;255.23;;;;;;;;;;5029534;28;20184;-63
2022/04/15 07:26:21;;;;;;;288.50;257.40;;;;;;;;;;5028567;28;20436;-63
2022/04/15 07:28:47;;;;;;;304.67;265.00;;;;;;;;;;5028920;28;20930;-61
2022/04/15 07:31:13;;;;;;;275.30;246.77;;;;;;;;;;5028860;28;20177;-63
2022/04/15 07:33:39;;;;;;;297.63;268.83;;;;;;;;;;5029462;28;20910;-60
2022/04/15 07:36:31;;;;;;;292.30;263.27;;;;;;;;;;5029673;28;20428;-62
2022/04/15 07:38:51;;;;;;;288.77;261.33;;;;;;;;;;5029682;28;20404;-62
2022/04/15 07:41:17;;;;;;;296.13;266.73;;;;;;;;;;5029119;28;20188;-62
2022/04/15 07:43:44;;;;;;;293.23;265.73;;;;;;;;;;5026852;28;20415;-62
2022/04/15 07:46:11;;;;;;;312.90;283.70;;;;;;;;;;5027847;28;20975;-63
2022/04/15 07:48:37;;;;;;;317.42;288.67;;;;;;;;;;5028386;28;20878;-61
2022/04/15 07:51:03;;;;;;;310.03;284.23;;;;;;;;;;5027292;28;20579;-62
2022/04/15 07:53:29;;;;;;;331.23;306.07;;;;;;;;;;5028157;28;20410;-61
2022/04/15 07:55:55;;;;;;;341.13;314.93;;;;;;;;;;5032662;28;20424;-62
2022/04/15 07:58:21;;;;;;;352.77;327.47;;;;;;;;;;5033332;28;20779;-63
2022/04/15 08:00:47;;;;;;;372.40;346.80;;;;;;;;;;5031557;28;20511;-62
2022/04/15 08:03:12;;;;;;;374.67;349.57;;;;;;;;;;5032606;28;20869;-62
2022/04/15 08:05:38;;;;;;;408.63;381.53;;;;;;;;;;5034261;28;20427;-63
2022/04/15 08:08:04;;;;;;;432.97;405.47;;;;;;;;;;5034226;28;20414;-60
2022/04/15 08:10:30;;;;;;;452.70;424.67;;;;;;;;;;5033820;28;20463;-60
2022/04/15 08:12:56;;;;;;;503.83;473.50;;;;;;;;;;5034130;28;20408;-60
2022/04/15 08:15:22;;;;;;;576.47;544.83;;;;;;;;;;5034019;28;20467;-59
2022/04/15 08:17:48;;;;;;;624.13;590.23;;;;;;;;;;5034123;28;20469;-60
2022/04/15 08:20:14;;;;;;;647.57;611.77;;;;;;;;;;5033752;28;20404;-60
2022/04/15 08:22:41;;;;;;;695.30;659.50;;;;;;;;;;5033415;28;20522;-60
2022/04/15 08:25:08;;;;;;;749.87;712.33;;;;;;;;;;5033062;28;20418;-61
2022/04/15 08:27:33;;;;;;;778.07;739.63;;;;;;;;;;5034008;28;20499;-60
2022/04/15 08:29:59;;;;;;;822.03;780.63;;;;;;;;;;5033532;28;21189;-61
2022/04/15 08:32:32;;;;;;;847.23;804.93;;;;;;;;;;5033695;28;20380;-61
2022/04/15 08:34:58;;;;;;;879.20;835.60;;;;;;;;;;5032288;28;20929;-61
2022/04/15 08:37:24;;;;;;;882.23;838.47;;;;;;;;;;5031225;28;20473;-65
2022/04/15 08:39:50;;;;;;;898.90;854.80;;;;;;;;;;5030788;28;20430;-61
2022/04/15 08:42:20;;;;;;;887.07;843.07;;;;;;;;;;5031725;28;20432;-61
2022/04/15 08:44:48;;;;;;;822.10;784.90;;;;;;;;;;5017021;28;20920;-60
2022/04/15 08:47:14;;;;;;;823.80;786.40;;;;;;;;;;5032133;28;20476;-61
2022/04/15 08:49:40;;;;;;;854.63;815.07;;;;;;;;;;5033099;28;20471;-61
2022/04/15 08:52:06;;;;;;;848.57;809.17;;;;;;;;;;5032434;28;20408;-62
2022/04/15 08:54:32;;;;;;;829.63;791.20;;;;;;;;;;5031810;28;20439;-61
2022/04/15 08:56:58;;;;;;;826.70;788.30;;;;;;;;;;5017162;28;20447;-62
2022/04/15 08:59:24;;;;;;;840.23;801.17;;;;;;;;;;5017443;28;20433;-62
2022/04/15 09:01:50;;;;;;;872.50;831.43;;;;;;;;;;5032675;28;20436;-62
2022/04/15 09:04:18;;;;;;;868.57;827.40;;;;;;;;;;5032817;28;20393;-62
2022/04/15 09:06:44;;;;;;;942.93;896.97;;;;;;;;;;5031378;28;20442;-61
2022/04/15 09:09:14;;;;;;;936.30;890.40;;;;;;;;;;5032026;28;20992;-60
2022/04/15 09:11:40;;;;;;;931.23;886.43;;;;;;;;;;5032418;28;20423;-60
2022/04/15 09:14:11;;;;;;;949.83;902.73;;;;;;;;;;5031074;28;20423;-60
2022/04/15 09:16:37;;;;;;;891.20;847.63;;;;;;;;;;5031042;28;20439;-62
2022/04/15 09:19:05;;;;;;;855.60;814.43;;;;;;;;;;5030955;28;20416;-62
2022/04/15 09:21:31;;;;;;;815.43;777.23;;;;;;;;;;5030702;28;20813;-62
2022/04/15 09:23:57;;;;;;;802.47;763.40;;;;;;;;;;5031091;28;20425;-61
2022/04/15 09:26:24;;;;;;;795.33;756.13;;;;;;;;;;5031014;28;20929;-62
2022/04/15 09:28:50;;;;;;;781.87;743.17;;;;;;;;;;5031942;28;20393;-62
2022/04/15 09:31:17;;;;;;;788.27;749.80;;;;;;;;;;5032466;28;20501;-62
2022/04/15 09:33:53;;;;;;;800.50;761.57;;;;;;;;;;5031823;28;20393;-62
2022/04/15 09:36:23;;;;;;;831.03;790.13;;;;;;;;;;5032602;28;20427;-60
2022/04/15 09:38:50;;;;;;;833.77;792.67;;;;;;;;;;5032727;28;20415;-63
2022/04/15 09:41:23;;;;;;;820.37;779.23;;;;;;;;;;5032202;28;20432;-62
2022/04/15 09:43:55;;;;;;;804.43;765.17;;;;;;;;;;5032252;28;20497;-62
2022/04/15 09:46:21;;;;;;;816.40;774.10;;;;;;;;;;5017769;28;20475;-62
2022/04/15 09:48:57;;;;;;;844.07;800.73;;;;;;;;;;5031577;28;20438;-62
2022/04/15 09:54:04;;;;;;;853.20;810.63;;;;;;;;;;5049033;28;20889;-64
2022/04/15 09:56:32;;;;;;;892.67;847.13;;;;;;;;;;5052264;28;20404;-64
2022/04/15 09:59:03;;;;;;;888.97;844.37;;;;;;;;;;5051517;28;20377;-64
2022/04/15 10:01:30;;;;;;;902.80;856.33;;;;;;;;;;5051861;28;20390;-64
2022/04/15 10:03:57;;;;;;;902.10;856.20;;;;;;;;;;5051859;28;20404;-64
2022/04/15 10:06:23;;;;;;;939.00;885.73;;;;;;;;;;5051861;28;20376;-64
2022/04/15 10:08:49;;;;;;;932.83;874.07;;;;;;;;;;5051466;28;20476;-64
2022/04/15 10:11:15;;;;;;;946.67;887.57;;;;;;;;;;5050320;28;20414;-64
2022/04/15 10:13:44;;;;;;;963.60;903.13;;;;;;;;;;5050585;28;20449;-64
2022/04/15 10:16:10;;;;;;;942.77;883.50;;;;;;;;;;5051520;28;20407;-64
2022/04/15 10:18:36;;;;;;;936.30;877.23;;;;;;;;;;5050759;28;20452;-65
2022/04/15 10:21:04;;;;;;;940.27;880.60;;;;;;;;;;5051372;28;20420;-64
2022/04/15 10:23:30;;;;;;;921.40;862.60;;;;;;;;;;5050881;28;20501;-64
2022/04/15 10:25:59;;;;;;;927.77;868.17;;;;;;;;;;5049866;28;20461;-64
2022/04/15 10:28:47;;;;;;;932.33;872.53;;;;;;;;;;5051170;28;20424;-65
2022/04/15 10:31:15;;;;;;;923.83;865.03;;;;;;;;;;5049921;28;20438;-64
2022/04/15 10:33:41;;;;;;;894.43;837.40;;;;;;;;;;5050975;28;20527;-64
2022/04/15 10:36:14;;;;;;;905.43;847.43;;;;;;;;;;5051488;28;20549;-64
2022/04/15 10:38:59;;;;;;;891.73;833.83;;;;;;;;;;5049030;28;20452;-64
2022/04/15 10:41:25;;;;;;;846.17;790.47;;;;;;;;;;5049092;28;20413;-64
2022/04/15 10:43:58;;;;;;;834.83;779.17;;;;;;;;;;5050565;28;20402;-64
2022/04/15 10:46:30;;;;;;;823.93;768.13;;;;;;;;;;5050628;28;20905;-64
2022/04/15 10:49:00;;;;;;;839.53;782.73;;;;;;;;;;5047337;28;20461;-64
2022/04/15 10:51:29;;;;;;;834.87;779.37;;;;;;;;;;5050168;28;20510;-64
2022/04/15 10:53:56;;;;;;;857.67;799.80;;;;;;;;;;5049934;28;20437;-64
2022/04/15 10:56:23;;;;;;;848.60;793.03;;;;;;;;;;5049928;28;20920;-64
2022/04/15 11:01:13;;;;;;;864.70;808.40;;;;;;;;;;5050867;28;20456;-64
2022/04/15 11:01:35;;;;;;;866.40;808.23;;;;;;;;;;5045067;28;20410;-64
2022/04/15 11:04:04;;;;;;;841.07;784.37;;;;;;;;;;5050342;28;20429;-63
2022/04/15 11:06:30;;;;;;;820.37;765.00;;;;;;;;;;5048275;28;20409;-63
2022/04/15 11:08:57;;;;;;;765.63;714.70;;;;;;;;;;5049590;28;21084;-63
2022/04/15 11:11:33;;;;;;;739.83;689.53;;;;;;;;;;5049782;28;20420;-63
2022/04/15 11:14:01;;;;;;;701.47;651.07;;;;;;;;;;5047536;28;20415;-63
2022/04/15 11:16:40;;;;;;;703.27;652.07;;;;;;;;;;5049675;28;20409;-64
2022/04/15 11:19:07;;;;;;;684.13;633.07;;;;;;;;;;5047022;28;20492;-64
2022/04/15 11:21:36;;;;;;;649.40;601.00;;;;;;;;;;5049873;28;20521;-63
2022/04/15 11:24:04;;;;;;;672.53;624.03;;;;;;;;;;5049023;28;20430;-63
2022/04/15 11:26:30;;;;;;;700.20;648.20;;;;;;;;;;5047611;28;20434;-63
2022/04/15 11:28:57;;;;;;;708.67;659.93;;;;;;;;;;5039976;28;20423;-64
2022/04/15 11:31:23;;;;;;;731.27;681.77;;;;;;;;;;5054088;28;20883;-64
2022/04/15 11:33:50;;;;;;;766.10;715.40;;;;;;;;;;5054043;28;20490;-64
2022/04/15 11:36:18;;;;;;;794.93;742.47;;;;;;;;;;5053799;28;20407;-64
2022/04/15 11:38:44;;;;;;;799.73;746.67;;;;;;;;;;5052981;28;20513;-64
2022/04/15 11:41:10;;;;;;;784.40;731.17;;;;;;;;;;5053079;28;20433;-63
2022/04/15 11:43:36;;;;;;;748.67;696.17;;;;;;;;;;5053058;28;20627;-63
2022/04/15 11:46:02;;;;;;;721.37;669.90;;;;;;;;;;5052818;28;20454;-63
2022/04/15 11:48:28;;;;;;;682.87;633.87;;;;;;;;;;5051699;28;20410;-63
2022/04/15 11:50:54;;;;;;;672.57;624.10;;;;;;;;;;5050711;28;20468;-63
2022/04/15 11:53:21;;;;;;;686.10;636.70;;;;;;;;;;5053266;28;20443;-65
2022/04/15 11:55:51;;;;;;;699.10;649.60;;;;;;;;;;5051277;28;20432;-63
2022/04/15 11:58:17;;;;;;;694.17;644.37;;;;;;;;;;5053333;28;20831;-64
2022/04/15 12:00:43;;;;;;;688.27;638.77;;;;;;;;;;5051638;28;20447;-64
2022/04/15 12:03:12;;;;;;;703.03;651.83;;;;;;;;;;5052448;28;21020;-64
2022/04/15 12:05:38;;;;;;;695.57;642.47;;;;;;;;;;5051894;28;20439;-64
2022/04/15 12:08:06;;;;;;;722.60;668.00;;;;;;;;;;5052245;28;20487;-64
2022/04/15 12:10:32;;;;;;;721.03;665.50;;;;;;;;;;5053061;28;20458;-63
2022/04/15 12:12:58;;;;;;;720.13;662.40;;;;;;;;;;5069154;28;20425;-64
2022/04/15 12:15:28;;;;;;;696.20;637.67;;;;;;;;;;5054011;28;20416;-64
2022/04/15 12:17:54;;;;;;;726.27;666.47;;;;;;;;;;5054035;28;20421;-64
2022/04/15 12:20:20;;;;;;;714.40;655.00;;;;;;;;;;5053011;28;20486;-64
2022/04/15 12:22:46;;;;;;;721.93;663.33;;;;;;;;;;5052551;28;20938;-64
2022/04/15 12:25:19;;;;;;;693.73;635.97;;;;;;;;;;5052722;28;20416;-64
2022/04/15 12:27:46;;;;;;;673.53;617.60;;;;;;;;;;5053054;28;20425;-63
2022/04/15 12:30:14;;;;;;;618.30;563.07;;;;;;;;;;5052616;28;20490;-63
2022/04/15 12:32:40;;;;;;;634.07;577.90;;;;;;;;;;5053665;28;20479;-63
2022/04/15 12:35:09;;;;;;;592.73;537.13;;;;;;;;;;5053725;28;20470;-64
2022/04/15 12:37:56;;;;;;;617.90;561.60;;;;;;;;;;5054350;28;20886;-63
2022/04/15 12:40:22;;;;;;;616.37;559.60;;;;;;;;;;5052463;28;20406;-64
2022/04/15 12:42:49;;;;;;;618.97;562.47;;;;;;;;;;5054046;28;20431;-63
2022/04/15 12:45:17;;;;;;;622.13;566.00;;;;;;;;;;5053695;28;20425;-63
2022/04/15 12:47:45;;;;;;;594.03;538.03;;;;;;;;;;5053234;28;20505;-63
2022/04/15 12:50:23;;;;;;;618.60;561.77;;;;;;;;;;5033331;28;20447;-63
2022/04/15 12:52:49;;;;;;;590.10;534.30;;;;;;;;;;5032344;28;20454;-63
2022/04/15 12:55:24;;;;;;;615.23;558.43;;;;;;;;;;5037537;28;20426;-64
2022/04/15 12:57:51;;;;;;;614.40;557.30;;;;;;;;;;5053673;28;20801;-63
2022/04/15 13:00:17;;;;;;;630.67;573.40;;;;;;;;;;5052069;28;20449;-63
2022/04/15 13:02:43;;;;;;;616.27;559.60;;;;;;;;;;5053454;28;20866;-63
2022/04/15 13:05:10;;;;;;;614.70;559.10;;;;;;;;;;5052634;28;20782;-63
2022/04/15 13:07:36;;;;;;;621.70;568.40;;;;;;;;;;5053359;28;21000;-63
2022/04/15 13:10:03;;;;;;;602.83;549.83;;;;;;;;;;5053538;28;20466;-63
2022/04/15 13:12:29;;;;;;;621.13;568.63;;;;;;;;;;5052547;28;20442;-63
2022/04/15 13:14:55;;;;;;;610.63;557.93;;;;;;;;;;5048877;28;20414;-63
2022/04/15 13:17:21;;;;;;;623.27;568.37;;;;;;;;;;5053137;28;20513;-63
2022/04/15 13:19:47;;;;;;;598.10;544.30;;;;;;;;;;5053026;28;20407;-63
2022/04/15 13:22:13;;;;;;;590.97;537.13;;;;;;;;;;5052776;28;20441;-63
2022/04/15 13:24:39;;;;;;;605.57;551.57;;;;;;;;;;5051759;28;20437;-63
2022/04/15 13:27:05;;;;;;;585.53;531.93;;;;;;;;;;5051495;28;20430;-63
2022/04/15 13:29:34;;;;;;;585.87;532.00;;;;;;;;;;5051778;28;20473;-63
2022/04/15 13:32:01;;;;;;;582.83;528.80;;;;;;;;;;5052362;28;20473;-63
2022/04/15 13:34:32;;;;;;;588.03;533.93;;;;;;;;;;5052631;28;20418;-63
2022/04/15 13:36:59;;;;;;;578.80;523.13;;;;;;;;;;5052357;28;21022;-63
2022/04/15 13:39:25;;;;;;;603.40;547.13;;;;;;;;;;5050895;28;20429;-63
2022/04/15 13:41:51;;;;;;;602.87;546.50;;;;;;;;;;5050669;28;20965;-64
2022/04/15 13:44:16;;;;;;;584.20;529.30;;;;;;;;;;5051874;28;20406;-63
2022/04/15 13:46:42;;;;;;;546.73;491.93;;;;;;;;;;5051846;28;20495;-63
2022/04/15 13:49:08;;;;;;;577.60;521.33;;;;;;;;;;5051369;28;20406;-63
2022/04/15 13:51:34;;;;;;;560.20;504.43;;;;;;;;;;5051304;28;20407;-63
2022/04/15 13:56:45;;;;;;;522.87;467.77;;;;;;;;;;5052393;28;20909;-63